Time;durP1;ratioP1;P1;durP2;ratioP2;P2;SDS_P1;SDS_P2;PMS_P1;PMS_P2;Temp;Humidity;BMP_temperature;BMP_pressure;BME280_temperature;BME280_humidity;BME280_pressure;Samples;Min_cycle;Max_cycle;Signal;HPM_P1;HPM_P2
2022/06/05 00:00:11;;;;;;;1.53;1.40;;;19.00;99.90;;;;;;5070935;28;20212;-96
2022/06/05 00:02:59;;;;;;;1.50;1.40;;;19.30;99.90;;;;;;5041902;28;20215;-96
2022/06/05 00:05:35;;;;;;;1.60;1.40;;;19.30;99.90;;;;;;5056631;28;20265;-96
2022/06/05 00:08:15;;;;;;;3.07;1.30;;;19.30;99.90;;;;;;5056476;28;20231;-96
2022/06/05 00:10:55;;;;;;;2.17;1.03;;;19.10;99.90;;;;;;5055874;28;20277;-96
2022/06/05 00:13:34;;;;;;;1.63;1.10;;;19.20;99.90;;;;;;5055597;28;20218;-96
2022/06/05 00:16:08;;;;;;;1.80;1.40;;;19.10;99.90;;;;;;5055659;28;20203;-96
2022/06/05 00:18:41;;;;;;;2.20;1.47;;;19.10;99.90;;;;;;5043722;28;20204;-96
2022/06/05 00:21:14;;;;;;;2.40;1.30;;;19.10;99.90;;;;;;5075967;28;20207;-96
2022/06/05 00:23:46;;;;;;;1.93;1.20;;;19.20;99.90;;;;;;5077161;28;20660;-95
2022/06/05 00:26:27;;;;;;;2.17;1.30;;;19.50;99.90;;;;;;5063805;28;20217;-96
2022/06/05 00:29:10;;;;;;;1.20;1.10;;;19.50;99.90;;;;;;5056795;28;20216;-95
2022/06/05 00:31:51;;;;;;;2.30;1.20;;;20.00;99.90;;;;;;5071067;28;20227;-96
2022/06/05 00:34:22;;;;;;;1.67;0.90;;;20.00;99.90;;;;;;5074139;28;20192;-95
2022/06/05 00:37:08;;;;;;;0.80;0.80;;;20.20;99.90;;;;;;5067260;28;20234;-94
2022/06/05 00:39:47;;;;;;;1.37;0.80;;;20.40;99.90;;;;;;5061966;28;20239;-96
2022/06/05 00:42:23;;;;;;;1.27;1.17;;;20.30;99.90;;;;;;5068241;28;20211;-96
2022/06/05 00:44:59;;;;;;;1.70;1.00;;;20.60;99.90;;;;;;5067036;28;20622;-96
2022/06/05 00:47:34;;;;;;;1.93;1.10;;;20.50;99.90;;;;;;5050302;28;20200;-96
2022/06/05 00:50:11;;;;;;;1.70;0.80;;;20.70;99.90;;;;;;5065093;28;20299;-96
2022/06/05 00:52:45;;;;;;;1.17;0.70;;;20.70;99.90;;;;;;5045432;28;20200;-96
2022/06/05 00:55:18;;;;;;;1.63;1.07;;;20.50;99.90;;;;;;5047861;28;20208;-96
2022/06/05 00:57:52;;;;;;;1.67;0.80;;;20.30;99.90;;;;;;5065163;28;20243;-96
2022/06/05 01:00:35;;;;;;;2.13;1.10;;;19.90;99.90;;;;;;5086729;22;20239;-96
2022/06/05 01:03:12;;;;;;;0.90;0.90;;;19.70;99.90;;;;;;5057766;28;20281;-96
2022/06/05 01:05:44;;;;;;;2.50;1.23;;;19.40;99.90;;;;;;5066414;28;20231;-95
2022/06/05 01:24:48;;;;;;;2.20;0.90;;;18.70;99.90;;;;;;5173542;22;20228;-96
2022/06/05 01:27:27;;;;;;;1.13;0.97;;;18.60;99.90;;;;;;5074879;28;20258;-95
2022/06/05 01:30:06;;;;;;;2.37;1.10;;;18.50;99.90;;;;;;5071200;28;20196;-96
2022/06/05 01:32:41;;;;;;;1.40;1.00;;;18.30;99.90;;;;;;5063939;28;20207;-96
2022/06/05 01:35:19;;;;;;;2.90;1.20;;;18.30;99.90;;;;;;5067377;28;20212;-95
2022/06/05 01:37:55;;;;;;;1.40;1.03;;;18.20;99.90;;;;;;5057153;28;20232;-96
2022/06/05 01:40:31;;;;;;;1.30;1.10;;;18.10;99.90;;;;;;5062350;28;20200;-95
2022/06/05 01:43:11;;;;;;;2.13;1.20;;;18.00;99.90;;;;;;5067030;28;20200;-96
2022/06/05 01:45:51;;;;;;;1.13;1.03;;;17.90;99.90;;;;;;5072349;28;20208;-96
2022/06/05 01:48:28;;;;;;;3.63;2.80;;;17.80;99.90;;;;;;5067377;28;20205;-96
2022/06/05 01:51:03;;;;;;;2.63;2.07;;;17.70;99.90;;;;;;5065840;28;20259;-96
2022/06/05 01:53:40;;;;;;;2.70;1.33;;;17.70;99.90;;;;;;5048525;28;20238;-96
2022/06/05 01:56:17;;;;;;;1.27;1.10;;;17.80;99.90;;;;;;5077578;28;20271;-96
2022/06/05 01:58:56;;;;;;;1.67;1.00;;;17.80;99.90;;;;;;5055662;28;20227;-96
2022/06/05 02:01:36;;;;;;;1.33;1.03;;;17.80;99.90;;;;;;5075559;28;20390;-96
2022/06/05 02:04:14;;;;;;;3.33;1.20;;;17.80;99.90;;;;;;5079293;28;20199;-96
2022/06/05 02:06:53;;;;;;;2.10;1.47;;;17.70;99.90;;;;;;5078684;28;20196;-96
2022/06/05 02:09:32;;;;;;;1.57;1.17;;;17.50;99.90;;;;;;5078674;28;20184;-95
2022/06/05 02:12:07;;;;;;;3.30;1.50;;;17.30;99.90;;;;;;5078966;28;20344;-96
2022/06/05 02:14:43;;;;;;;2.63;1.33;;;17.20;99.90;;;;;;5077487;28;20184;-94
2022/06/05 02:17:18;;;;;;;2.33;1.47;;;17.20;99.90;;;;;;5078739;28;20191;-90
2022/06/05 02:19:49;;;;;;;3.27;1.63;;;17.10;99.90;;;;;;5078693;28;20217;-95
2022/06/05 02:22:28;;;;;;;2.17;1.20;;;17.00;99.90;;;;;;5078181;28;20192;-95
2022/06/05 02:25:00;;;;;;;1.83;1.30;;;16.90;99.90;;;;;;5079059;28;20189;-96
2022/06/05 02:27:32;;;;;;;2.70;1.73;;;16.90;99.90;;;;;;5075111;28;20318;-95
2022/06/05 02:30:08;;;;;;;1.60;1.37;;;16.80;99.90;;;;;;5066945;28;20215;-96
2022/06/05 02:32:53;;;;;;;4.03;1.77;;;16.80;99.90;;;;;;5075760;28;20226;-96
2022/06/05 02:35:33;;;;;;;5.33;2.10;;;16.70;99.90;;;;;;5075041;28;20272;-95
2022/06/05 02:46:13;;;;;;;4.30;1.80;;;16.50;99.90;;;;;;5052938;28;20223;-96
2022/06/05 02:48:52;;;;;;;4.70;2.20;;;16.50;99.90;;;;;;5053156;28;20227;-95
2022/06/05 02:51:28;;;;;;;4.00;1.77;;;16.40;99.90;;;;;;5047398;28;20223;-96
2022/06/05 02:54:01;;;;;;;3.77;2.67;;;16.40;99.90;;;;;;5054099;28;20204;-96
2022/06/05 02:56:35;;;;;;;1.27;1.13;;;16.40;99.90;;;;;;5005196;28;20248;-95
2022/06/05 02:59:06;;;;;;;2.87;2.03;;;16.30;99.90;;;;;;5034751;28;20260;-96
2022/06/05 03:04:31;;;;;;;3.77;2.30;;;16.30;99.90;;;;;;5012154;28;20289;-96
2022/06/05 03:07:03;;;;;;;5.00;2.30;;;16.30;99.90;;;;;;5036590;28;20205;-95
2022/06/05 03:09:35;;;;;;;4.27;2.53;;;16.30;99.90;;;;;;5047069;28;20256;-96
2022/06/05 03:12:08;;;;;;;5.93;2.80;;;16.30;99.90;;;;;;5026290;28;20265;-96
2022/06/05 03:14:39;;;;;;;5.53;2.40;;;16.30;99.90;;;;;;5025463;28;20655;-96
2022/06/05 03:17:13;;;;;;;4.63;2.57;;;16.30;99.90;;;;;;5026296;28;20198;-88
2022/06/05 03:19:45;;;;;;;2.67;1.80;;;16.30;99.90;;;;;;5027338;28;20233;-90
2022/06/05 03:22:18;;;;;;;1.50;1.40;;;16.20;99.90;;;;;;5025009;28;20255;-95
2022/06/05 03:24:49;;;;;;;2.57;1.77;;;16.20;99.90;;;;;;5015510;28;20228;-93
2022/06/05 03:27:22;;;;;;;2.50;1.83;;;16.20;99.90;;;;;;4998619;28;20210;-95
2022/06/05 03:29:54;;;;;;;2.87;2.40;;;16.30;99.90;;;;;;4682555;28;9999906;-91
2022/06/05 03:32:28;;;;;;;3.07;1.90;;;16.20;99.90;;;;;;5031013;28;20219;-92
2022/06/05 03:34:59;;;;;;;2.90;2.30;;;16.20;99.90;;;;;;5029936;28;20210;-90
2022/06/05 03:37:32;;;;;;;3.10;1.80;;;16.10;99.90;;;;;;5017674;28;20213;-91
2022/06/05 03:40:03;;;;;;;2.13;1.73;;;16.00;99.90;;;;;;5020136;28;20607;-89
2022/06/05 03:42:34;;;;;;;2.73;2.27;;;16.00;99.90;;;;;;5025307;28;20202;-96
2022/06/05 03:45:06;;;;;;;2.73;1.63;;;16.00;99.90;;;;;;5022332;28;20272;-94
2022/06/05 03:47:40;;;;;;;2.87;2.23;;;16.00;99.90;;;;;;5017425;28;20608;-95
2022/06/05 03:50:14;;;;;;;2.77;1.93;;;16.00;99.90;;;;;;5028538;28;20201;-96
2022/06/05 03:52:49;;;;;;;4.00;2.40;;;16.10;99.90;;;;;;5016481;28;20236;-95
2022/06/05 03:55:26;;;;;;;6.40;2.23;;;15.90;99.90;;;;;;5027297;28;20279;-96
2022/06/05 03:58:01;;;;;;;6.10;3.00;;;16.00;99.90;;;;;;5010014;28;20208;-96
2022/06/05 04:00:33;;;;;;;3.93;2.67;;;16.00;99.90;;;;;;5028763;28;20625;-96
2022/06/05 04:03:08;;;;;;;3.83;2.50;;;15.90;99.90;;;;;;5028085;28;20218;-96
2022/06/05 04:05:40;;;;;;;3.50;2.53;;;15.90;99.90;;;;;;5022018;28;20205;-96
2022/06/05 04:08:14;;;;;;;4.10;2.53;;;15.90;99.90;;;;;;5031137;28;20193;-96
2022/06/05 04:10:49;;;;;;;5.63;2.93;;;15.90;99.90;;;;;;5027014;28;20221;-96
2022/06/05 04:13:20;;;;;;;7.37;3.10;;;15.90;99.90;;;;;;5029966;28;20213;-96
2022/06/05 04:15:54;;;;;;;4.33;2.40;;;15.90;99.90;;;;;;5032677;28;20220;-95
2022/06/05 04:18:38;;;;;;;5.83;2.93;;;15.90;99.90;;;;;;5035954;28;20244;-94
2022/06/05 04:23:50;;;;;;;6.50;2.80;;;15.90;99.90;;;;;;5039259;28;20209;-94
2022/06/05 04:26:26;;;;;;;7.77;3.90;;;15.90;99.90;;;;;;5026429;28;20201;-95
2022/06/05 04:28:58;;;;;;;5.63;3.50;;;15.80;99.90;;;;;;5032979;28;20217;-96
2022/06/05 04:31:33;;;;;;;5.10;2.80;;;15.80;99.90;;;;;;5033390;28;20236;-95
2022/06/05 04:34:08;;;;;;;5.80;3.30;;;15.80;99.90;;;;;;5012426;28;20214;-96
2022/06/05 04:36:41;;;;;;;4.63;3.20;;;15.80;99.90;;;;;;5029502;28;20206;-95
2022/06/05 04:39:14;;;;;;;3.10;2.43;;;15.80;99.90;;;;;;5013003;28;20233;-95
2022/06/05 04:41:48;;;;;;;4.47;3.00;;;15.70;99.90;;;;;;5004173;28;20217;-95
2022/06/05 04:44:20;;;;;;;7.70;3.40;;;15.70;99.90;;;;;;5017913;28;20241;-95
2022/06/05 04:46:54;;;;;;;6.53;2.90;;;15.80;99.90;;;;;;5019939;28;20258;-95
2022/06/05 04:49:29;;;;;;;4.77;3.50;;;15.80;99.90;;;;;;5005235;28;20201;-95
2022/06/05 04:52:00;;;;;;;4.43;3.47;;;15.80;99.90;;;;;;5027513;28;20220;-95
2022/06/05 04:54:32;;;;;;;5.43;3.50;;;15.80;99.90;;;;;;5040495;28;20226;-95
2022/06/05 04:57:04;;;;;;;4.30;3.07;;;15.80;99.90;;;;;;5040237;28;20190;-94
2022/06/05 04:59:36;;;;;;;4.33;3.30;;;15.80;99.90;;;;;;5039480;28;20304;-96
2022/06/05 05:02:08;;;;;;;4.63;3.50;;;15.80;99.90;;;;;;5018098;28;20268;-94
2022/06/05 05:04:43;;;;;;;5.20;3.77;;;15.80;99.90;;;;;;4996943;28;20191;-96
2022/06/05 05:07:14;;;;;;;5.37;3.30;;;15.80;99.90;;;;;;5004793;28;20197;-95
2022/06/05 05:09:50;;;;;;;4.60;3.03;;;15.90;99.90;;;;;;5020080;28;20205;-95
2022/06/05 05:12:22;;;;;;;3.43;3.10;;;15.80;99.90;;;;;;5004726;28;20215;-94
2022/06/05 05:14:55;;;;;;;4.30;3.17;;;15.70;99.90;;;;;;5019569;28;20214;-94
2022/06/05 05:17:30;;;;;;;3.97;3.50;;;15.70;99.90;;;;;;4668252;28;9999768;-95
2022/06/05 05:20:05;;;;;;;4.73;3.40;;;15.70;99.90;;;;;;5013676;28;20241;-95
2022/06/05 05:22:37;;;;;;;5.63;3.67;;;15.60;99.90;;;;;;5019904;28;20209;-96
2022/06/05 05:25:11;;;;;;;5.37;3.30;;;15.70;99.90;;;;;;5021680;28;20206;-96
2022/06/05 05:27:43;;;;;;;7.73;3.73;;;15.70;99.90;;;;;;5024263;28;20217;-96
2022/06/05 05:30:15;;;;;;;5.17;3.97;;;15.80;99.90;;;;;;5016262;28;20210;-96
2022/06/05 05:32:48;;;;;;;4.60;4.17;;;15.80;99.90;;;;;;5021295;28;20205;-96
2022/06/05 05:35:22;;;;;;;4.17;3.60;;;15.80;99.90;;;;;;5007702;28;20205;-96
2022/06/05 05:37:53;;;;;;;4.50;3.60;;;15.80;99.90;;;;;;5023690;28;20244;-96
2022/06/05 05:43:15;;;;;;;4.27;3.83;;;15.70;99.90;;;;;;5004893;28;20248;-96
2022/06/05 05:45:51;;;;;;;4.73;3.60;;;15.70;99.90;;;;;;5028023;28;20209;-96
2022/06/05 05:48:43;;;;;;;5.23;3.53;;;15.70;99.90;;;;;;5024445;28;20209;-96
2022/06/05 05:51:26;;;;;;;3.73;3.30;;;15.70;99.90;;;;;;5027428;28;20280;-96
2022/06/05 05:53:58;;;;;;;3.77;3.40;;;15.80;99.90;;;;;;5001417;28;20316;-96
2022/06/05 05:56:30;;;;;;;3.80;3.50;;;15.70;99.90;;;;;;5017254;28;20269;-96
2022/06/05 05:59:01;;;;;;;3.80;3.10;;;15.70;99.90;;;;;;5009890;28;20320;-96
2022/06/05 06:01:34;;;;;;;3.80;3.50;;;15.70;99.90;;;;;;5008580;28;20210;-96
2022/06/05 06:07:02;;;;;;;3.07;2.83;;;15.70;99.90;;;;;;5006221;28;20209;-96
2022/06/05 06:09:34;;;;;;;3.00;2.70;;;15.70;99.90;;;;;;5019952;28;20221;-96
2022/06/05 06:12:06;;;;;;;4.57;3.40;;;15.60;99.90;;;;;;5018567;28;20678;-96
2022/06/05 06:14:37;;;;;;;4.20;2.60;;;15.50;99.90;;;;;;5020187;28;20198;-96
2022/06/05 06:17:09;;;;;;;3.70;2.67;;;15.40;99.90;;;;;;5028472;28;20210;-96
2022/06/05 06:22:20;;;;;;;5.00;2.50;;;15.40;99.90;;;;;;5042808;28;20217;-95
2022/06/05 06:24:52;;;;;;;3.40;2.67;;;15.30;99.90;;;;;;5006970;28;20206;-96
2022/06/05 06:27:23;;;;;;;3.00;2.60;;;15.20;99.90;;;;;;5008037;28;20213;-95
2022/06/05 06:29:55;;;;;;;4.00;2.47;;;15.30;99.90;;;;;;5020840;28;20206;-94
2022/06/05 06:32:26;;;;;;;5.10;2.37;;;15.20;99.90;;;;;;5004123;28;20225;-95
2022/06/05 06:34:58;;;;;;;4.57;3.00;;;15.20;99.90;;;;;;5001290;28;20209;-95
2022/06/05 06:37:32;;;;;;;3.57;2.57;;;15.20;99.90;;;;;;5018434;28;20209;-94
2022/06/05 06:40:04;;;;;;;5.07;3.20;;;15.30;99.90;;;;;;5017577;28;20330;-95
2022/06/05 06:42:35;;;;;;;3.77;2.80;;;15.40;99.90;;;;;;5018085;28;20209;-93
2022/06/05 06:45:08;;;;;;;3.80;2.73;;;15.30;99.90;;;;;;4999020;28;20201;-96
2022/06/05 06:47:39;;;;;;;4.20;3.23;;;15.20;99.90;;;;;;5017516;28;20218;-94
2022/06/05 06:50:11;;;;;;;3.53;2.77;;;15.20;99.90;;;;;;5017471;28;20210;-94
2022/06/05 06:52:45;;;;;;;3.77;2.77;;;15.20;99.90;;;;;;5018568;28;20312;-94
2022/06/05 06:55:18;;;;;;;3.90;3.10;;;15.20;99.90;;;;;;5017785;28;20232;-93
2022/06/05 06:57:50;;;;;;;3.33;2.60;;;15.20;99.90;;;;;;5017317;28;20233;-94
2022/06/05 07:00:22;;;;;;;4.73;2.50;;;15.30;99.90;;;;;;5022624;28;20254;-96
2022/06/05 07:02:53;;;;;;;7.77;3.30;;;15.30;99.90;;;;;;5011383;28;20204;-94
2022/06/05 07:05:26;;;;;;;7.07;2.90;;;15.30;99.90;;;;;;5004138;28;20202;-94
2022/06/05 07:08:01;;;;;;;2.67;2.40;;;15.30;99.90;;;;;;5018025;28;20218;-95
2022/06/05 07:10:34;;;;;;;5.20;2.63;;;15.20;99.90;;;;;;5018600;28;20723;-95
2022/06/05 07:13:06;;;;;;;3.73;2.70;;;15.30;99.90;;;;;;5001549;28;20555;-95
2022/06/05 07:15:37;;;;;;;6.17;2.13;;;15.30;99.90;;;;;;5017852;28;20201;-95
2022/06/05 07:18:10;;;;;;;3.50;2.10;;;15.30;99.90;;;;;;5016240;28;20240;-94
2022/06/05 07:20:43;;;;;;;2.60;2.13;;;15.30;99.90;;;;;;5027078;28;20206;-96
2022/06/05 07:23:17;;;;;;;3.67;2.10;;;15.30;99.90;;;;;;5029393;28;20204;-95
2022/06/05 07:25:50;;;;;;;2.27;1.90;;;15.30;99.90;;;;;;5002598;28;20218;-95
2022/06/05 07:28:22;;;;;;;2.33;2.03;;;15.30;99.90;;;;;;5018813;28;20197;-94
2022/06/05 07:30:54;;;;;;;3.63;2.10;;;15.30;99.90;;;;;;5018480;28;20214;-94
2022/06/05 07:33:25;;;;;;;4.80;1.97;;;15.40;99.90;;;;;;5028564;28;20193;-95
2022/06/05 07:36:03;;;;;;;2.33;1.70;;;15.40;99.90;;;;;;5005446;28;20210;-95
2022/06/05 07:38:38;;;;;;;2.00;1.80;;;15.30;99.90;;;;;;5024268;28;20587;-96
2022/06/05 07:41:18;;;;;;;2.13;1.63;;;15.40;99.90;;;;;;5015866;28;20245;-96
2022/06/05 07:43:49;;;;;;;2.40;1.50;;;15.40;99.90;;;;;;5023680;28;20232;-96
2022/06/05 07:46:22;;;;;;;1.87;1.70;;;15.40;99.90;;;;;;5017072;28;20213;-96
2022/06/05 07:48:54;;;;;;;3.57;1.50;;;15.30;99.90;;;;;;5017820;28;20222;-95
2022/06/05 07:54:31;;;;;;;5.17;1.77;;;15.40;99.90;;;;;;5016690;28;20224;-94
2022/06/05 07:57:06;;;;;;;2.83;2.00;;;15.40;99.90;;;;;;5016929;28;20240;-94
2022/06/05 07:59:39;;;;;;;2.37;2.17;;;15.20;99.90;;;;;;5014301;28;20665;-95
2022/06/05 08:02:13;;;;;;;3.57;2.10;;;15.20;99.90;;;;;;5018673;28;20265;-94
2022/06/05 08:04:46;;;;;;;4.73;2.20;;;15.20;99.90;;;;;;5017010;28;20212;-94
2022/06/05 08:07:21;;;;;;;3.80;2.67;;;15.20;99.90;;;;;;5015810;28;20271;-95
2022/06/05 08:09:55;;;;;;;5.13;2.43;;;15.30;99.90;;;;;;5018766;28;20213;-95
2022/06/05 08:12:30;;;;;;;3.33;2.30;;;15.30;99.90;;;;;;5015914;28;20201;-94
2022/06/05 08:15:08;;;;;;;2.57;2.23;;;15.30;99.90;;;;;;5015961;28;20666;-94
2022/06/05 08:17:41;;;;;;;3.07;2.20;;;15.30;99.90;;;;;;5016031;28;20214;-94
2022/06/05 08:20:15;;;;;;;4.70;2.50;;;15.40;99.90;;;;;;5014357;28;20740;-95
2022/06/05 08:22:49;;;;;;;2.67;2.40;;;15.50;99.90;;;;;;5019034;28;20209;-94
2022/06/05 08:25:25;;;;;;;2.33;2.03;;;15.40;99.90;;;;;;5007980;28;20218;-95
2022/06/05 08:27:57;;;;;;;2.10;2.00;;;15.40;99.90;;;;;;4997016;28;20221;-94
2022/06/05 08:30:28;;;;;;;4.17;1.97;;;15.40;99.90;;;;;;5014328;28;20217;-94
2022/06/05 08:33:14;;;;;;;3.93;1.93;;;15.40;99.90;;;;;;5020440;27;3375668;-95
2022/06/05 08:35:48;;;;;;;2.50;2.30;;;15.40;99.90;;;;;;5112942;28;20284;-94
2022/06/05 08:41:34;;;;;;;3.10;1.90;;;15.30;99.90;;;;;;5112134;28;20216;-94
2022/06/05 08:44:15;;;;;;;7.10;2.17;;;15.30;99.90;;;;;;5106177;28;20218;-95
2022/06/05 08:46:55;;;;;;;2.17;1.97;;;15.30;99.90;;;;;;5113260;28;20206;-96
2022/06/05 08:49:40;;;;;;;2.17;1.50;;;15.30;99.90;;;;;;5104730;28;20275;-95
2022/06/05 08:52:23;;;;;;;5.10;1.50;;;15.20;99.90;;;;;;5116246;28;20261;-96
2022/06/05 08:55:04;;;;;;;1.30;1.20;;;15.10;99.90;;;;;;5115680;28;20309;-95
2022/06/05 08:57:42;;;;;;;3.53;1.10;;;15.10;99.90;;;;;;5118108;28;20229;-95
2022/06/05 09:00:19;;;;;;;2.40;1.00;;;15.00;99.90;;;;;;5116051;28;20713;-95
2022/06/05 09:02:56;;;;;;;3.47;1.17;;;15.00;99.90;;;;;;5077592;28;20230;-95
2022/06/05 09:05:33;;;;;;;0.87;0.80;;;15.00;99.90;;;;;;5078319;28;20242;-95
2022/06/05 09:08:11;;;;;;;2.57;1.03;;;15.00;99.90;;;;;;5093071;28;20230;-95
2022/06/05 09:10:46;;;;;;;1.27;1.17;;;14.90;99.90;;;;;;5093816;28;20694;-95
2022/06/05 09:13:23;;;;;;;1.70;1.10;;;15.00;99.90;;;;;;5112659;28;20233;-95
2022/06/05 09:16:00;;;;;;;2.70;1.30;;;14.90;99.90;;;;;;5096326;28;20210;-94
2022/06/05 09:18:37;;;;;;;1.70;1.40;;;15.00;99.90;;;;;;5117978;28;20202;-94
2022/06/05 09:21:26;;;;;;;3.80;1.60;;;15.00;99.90;;;;;;5100504;28;20214;-95
2022/06/05 09:24:07;;;;;;;2.47;1.60;;;15.10;99.90;;;;;;5113109;28;20213;-95
2022/06/05 09:26:44;;;;;;;3.27;1.47;;;15.10;99.90;;;;;;5097433;28;20221;-95
2022/06/05 09:29:35;;;;;;;1.90;1.40;;;15.10;99.90;;;;;;5100511;28;20203;-95
2022/06/05 09:32:41;;;;;;;3.07;1.70;;;15.20;99.90;;;;;;5112703;28;20224;-95
2022/06/05 09:35:22;;;;;;;2.53;1.63;;;15.20;99.90;;;;;;5074698;28;20207;-95
2022/06/05 09:38:02;;;;;;;2.10;1.90;;;15.20;99.90;;;;;;5093393;28;20219;-95
2022/06/05 09:40:40;;;;;;;4.13;1.50;;;15.20;99.90;;;;;;5091339;28;20226;-95
2022/06/05 09:43:31;;;;;;;1.60;1.50;;;15.20;99.90;;;;;;5087060;28;20566;-96
2022/06/05 09:46:19;;;;;;;1.90;1.43;;;15.20;99.90;;;;;;5083366;28;20227;-96
2022/06/05 09:48:54;;;;;;;7.10;1.67;;;15.20;99.90;;;;;;5084913;28;20229;-96
2022/06/05 09:51:27;;;;;;;7.43;1.53;;;15.20;99.90;;;;;;5102132;28;20270;-96
2022/06/05 09:54:13;;;;;;;2.60;1.60;;;15.10;99.90;;;;;;5098885;28;20313;-96
2022/06/05 09:59:51;;;;;;;2.37;1.50;;;15.10;99.90;;;;;;5098503;28;20214;-96
2022/06/05 10:02:24;;;;;;;2.43;1.63;;;15.10;99.90;;;;;;5101573;28;20214;-96
2022/06/05 10:04:57;;;;;;;2.23;1.50;;;15.20;99.90;;;;;;5113883;28;20203;-96
2022/06/05 10:07:45;;;;;;;1.23;1.20;;;15.10;99.90;;;;;;5117441;28;20218;-95
2022/06/05 10:10:28;;;;;;;1.17;1.07;;;15.00;99.90;;;;;;5116051;28;20183;-96
2022/06/05 10:13:05;;;;;;;1.07;0.93;;;15.10;99.90;;;;;;5116734;28;20245;-96
2022/06/05 10:15:45;;;;;;;3.00;1.30;;;15.10;99.90;;;;;;5102478;28;20211;-95
2022/06/05 10:18:22;;;;;;;5.53;1.40;;;15.00;99.90;;;;;;5098763;28;20278;-94
2022/06/05 10:21:08;;;;;;;2.90;1.30;;;15.00;99.90;;;;;;5100136;28;20223;-95
2022/06/05 10:23:48;;;;;;;4.67;1.37;;;15.00;99.90;;;;;;5093324;28;20240;-96
2022/06/05 10:26:38;;;;;;;3.57;1.10;;;15.00;99.90;;;;;;5098206;28;20566;-95
2022/06/05 10:29:20;;;;;;;1.83;1.47;;;15.00;99.90;;;;;;5098623;28;20218;-94
2022/06/05 10:31:59;;;;;;;1.67;1.37;;;15.00;99.90;;;;;;5097348;28;20214;-95
2022/06/05 10:34:40;;;;;;;2.57;1.50;;;15.00;99.90;;;;;;5098593;28;20524;-95
2022/06/05 10:37:23;;;;;;;2.17;1.10;;;15.00;99.90;;;;;;5098236;28;20260;-95
2022/06/05 10:40:13;;;;;;;2.13;1.10;;;15.00;99.90;;;;;;5096553;28;20234;-95
2022/06/05 10:42:56;;;;;;;2.27;1.10;;;14.90;99.90;;;;;;5097535;28;20226;-95
2022/06/05 10:45:43;;;;;;;1.87;1.03;;;14.90;99.90;;;;;;5098246;28;20291;-95
2022/06/05 10:48:40;;;;;;;4.03;1.10;;;14.90;99.90;;;;;;5096867;28;20252;-95
2022/06/05 10:51:22;;;;;;;3.23;1.33;;;14.90;99.90;;;;;;5079117;28;20211;-95
2022/06/05 10:54:00;;;;;;;3.37;0.90;;;14.80;99.90;;;;;;5096778;28;20240;-94
2022/06/05 10:56:38;;;;;;;2.57;1.17;;;14.80;99.90;;;;;;5079074;28;20207;-94
2022/06/05 10:59:19;;;;;;;1.43;1.10;;;14.80;99.90;;;;;;5097266;28;20244;-95
2022/06/05 11:02:03;;;;;;;4.20;1.00;;;14.80;99.90;;;;;;5092688;28;20211;-96
2022/06/05 11:04:47;;;;;;;2.60;1.23;;;14.80;99.90;;;;;;5075795;28;20269;-94
2022/06/05 11:07:47;;;;;;;0.90;0.80;;;14.80;99.90;;;;;;5076751;28;20211;-96
2022/06/05 11:13:44;;;;;;;1.47;1.03;;;14.70;99.90;;;;;;5075613;28;20333;-95
2022/06/05 11:16:38;;;;;;;1.10;0.70;;;14.70;99.90;;;;;;5084081;28;20207;-95
2022/06/05 11:19:18;;;;;;;2.50;0.70;;;14.70;99.90;;;;;;5096077;28;20256;-95
2022/06/05 11:21:52;;;;;;;1.03;0.93;;;14.70;99.90;;;;;;5096589;28;20325;-95
2022/06/05 11:24:26;;;;;;;1.03;0.70;;;14.70;99.90;;;;;;5096866;28;20206;-95
2022/06/05 11:27:08;;;;;;;2.17;0.90;;;14.70;99.90;;;;;;5101324;28;20240;-95
2022/06/05 11:29:53;;;;;;;1.77;0.50;;;14.60;99.90;;;;;;5098638;28;20221;-95
2022/06/05 11:32:42;;;;;;;0.50;0.50;;;14.60;99.90;;;;;;5100323;28;20222;-95
2022/06/05 11:35:27;;;;;;;0.50;0.50;;;14.50;99.90;;;;;;5096457;28;20242;-95
2022/06/05 11:38:05;;;;;;;2.27;0.60;;;14.60;99.90;;;;;;5096942;28;20284;-95
2022/06/05 11:40:46;;;;;;;0.80;0.60;;;14.60;99.90;;;;;;5078827;28;20207;-95
2022/06/05 11:43:35;;;;;;;3.30;0.70;;;14.60;99.90;;;;;;5077144;28;20203;-95
2022/06/05 11:46:31;;;;;;;1.90;0.97;;;14.60;99.90;;;;;;5079675;28;20267;-95
2022/06/05 11:49:11;;;;;;;1.27;0.60;;;14.70;99.90;;;;;;5106618;28;20203;-94
2022/06/05 11:51:59;;;;;;;1.37;0.63;;;14.60;99.90;;;;;;5111700;28;20214;-94
2022/06/05 11:54:41;;;;;;;2.00;0.40;;;14.60;99.90;;;;;;5099490;28;20766;-95
2022/06/05 11:57:18;;;;;;;1.17;0.60;;;14.70;99.90;;;;;;5097530;28;20225;-95
2022/06/05 11:59:54;;;;;;;0.40;0.40;;;14.60;99.90;;;;;;5078867;28;20276;-95
2022/06/05 12:02:53;;;;;;;0.73;0.57;;;14.60;99.90;;;;;;5080197;28;20194;-94
2022/06/05 12:05:49;;;;;;;0.83;0.50;;;14.60;99.90;;;;;;5100873;28;20214;-96
2022/06/05 12:08:27;;;;;;;1.27;0.60;;;14.50;99.90;;;;;;5097819;28;20284;-95
2022/06/05 12:11:04;;;;;;;6.53;0.60;;;14.50;99.90;;;;;;5101753;28;20210;-96
2022/06/05 12:13:49;;;;;;;1.33;0.40;;;14.50;99.90;;;;;;5099700;28;20262;-96
2022/06/05 12:16:30;;;;;;;2.47;0.40;;;14.50;99.90;;;;;;5079839;28;20210;-96
2022/06/05 12:19:10;;;;;;;0.67;0.50;;;14.50;99.90;;;;;;5101369;28;20207;-96
2022/06/05 12:21:55;;;;;;;0.47;0.40;;;14.40;99.90;;;;;;5100148;28;20235;-96
2022/06/05 12:24:32;;;;;;;1.83;0.50;;;14.50;99.90;;;;;;5065124;28;20603;-96
2022/06/05 12:27:11;;;;;;;2.57;0.73;;;14.40;99.90;;;;;;5097390;28;20620;-94
2022/06/05 12:29:50;;;;;;;2.00;0.50;;;14.40;99.90;;;;;;5082835;28;20205;-94
2022/06/05 12:32:30;;;;;;;1.00;0.50;;;14.30;99.90;;;;;;5081307;28;20222;-95
2022/06/05 12:35:07;;;;;;;2.90;0.40;;;14.40;99.90;;;;;;5096970;28;20279;-94
2022/06/05 12:37:47;;;;;;;2.93;0.37;;;14.20;99.90;;;;;;5101362;28;20251;-94
2022/06/05 12:40:25;;;;;;;1.23;0.50;;;14.30;99.90;;;;;;5100823;28;20245;-95
2022/06/05 12:43:03;;;;;;;1.17;0.40;;;14.20;99.90;;;;;;5079314;28;20207;-94
2022/06/05 12:45:38;;;;;;;1.80;0.50;;;14.20;99.90;;;;;;5078693;28;20242;-95
2022/06/05 12:48:19;;;;;;;0.80;0.67;;;14.20;99.90;;;;;;5079737;28;20211;-95
2022/06/05 12:50:58;;;;;;;2.70;0.53;;;14.20;99.90;;;;;;5077087;28;20211;-95
2022/06/05 12:53:38;;;;;;;1.90;0.60;;;14.20;99.90;;;;;;5078011;28;20269;-95
2022/06/05 12:56:24;;;;;;;0.43;0.40;;;14.30;99.90;;;;;;5095287;28;20199;-95
2022/06/05 12:59:01;;;;;;;1.43;0.60;;;14.30;99.90;;;;;;5094994;28;20257;-95
2022/06/05 13:01:39;;;;;;;2.87;0.50;;;14.40;99.90;;;;;;5096850;28;20226;-95
2022/06/05 13:04:18;;;;;;;2.70;0.60;;;14.50;99.90;;;;;;5098051;28;20211;-94
2022/06/05 13:06:59;;;;;;;0.70;0.40;;;14.50;99.90;;;;;;5097370;28;20294;-95
2022/06/05 13:09:38;;;;;;;0.30;0.30;;;14.40;99.90;;;;;;5098858;28;20210;-95
2022/06/05 13:12:27;;;;;;;0.40;0.40;;;14.40;99.90;;;;;;5098511;28;20301;-95
2022/06/05 13:15:05;;;;;;;2.63;0.77;;;14.40;99.90;;;;;;5098624;28;20235;-96
2022/06/05 13:17:45;;;;;;;1.87;0.60;;;14.40;99.90;;;;;;5078410;28;20260;-95
2022/06/05 13:20:24;;;;;;;0.60;0.50;;;14.40;99.90;;;;;;5099920;28;20203;-95
2022/06/05 13:23:02;;;;;;;1.03;0.60;;;14.30;99.90;;;;;;5066108;28;20261;-95
2022/06/05 13:25:52;;;;;;;0.77;0.60;;;14.30;99.90;;;;;;5063877;28;20725;-95
2022/06/05 13:28:40;;;;;;;0.60;0.50;;;14.30;99.90;;;;;;5065390;28;20884;-95
2022/06/05 13:31:26;;;;;;;0.60;0.60;;;14.30;99.90;;;;;;5086337;28;20259;-96
2022/06/05 13:34:06;;;;;;;1.83;0.87;;;14.30;99.90;;;;;;5102973;28;20234;-96
2022/06/05 13:36:45;;;;;;;1.60;0.73;;;14.20;99.90;;;;;;5109820;28;20207;-96
2022/06/05 13:39:26;;;;;;;2.23;1.00;;;14.30;99.90;;;;;;5106670;28;20222;-96
2022/06/05 13:42:05;;;;;;;1.33;0.70;;;14.30;99.90;;;;;;5082239;28;20282;-96
2022/06/05 13:44:38;;;;;;;1.90;0.73;;;14.30;99.90;;;;;;5099631;28;20331;-96
2022/06/05 13:47:21;;;;;;;0.80;0.60;;;14.30;99.90;;;;;;5100286;28;20203;-96
2022/06/05 13:50:03;;;;;;;0.70;0.60;;;14.30;99.90;;;;;;5099254;28;20207;-96
2022/06/05 13:52:42;;;;;;;1.73;0.80;;;14.30;99.90;;;;;;5082667;28;20260;-96
2022/06/05 13:55:23;;;;;;;1.63;0.60;;;14.30;99.90;;;;;;5105697;28;20233;-94
2022/06/05 13:58:02;;;;;;;1.90;1.00;;;14.30;99.90;;;;;;5117734;28;20198;-96
2022/06/05 14:00:38;;;;;;;1.10;0.80;;;14.30;99.90;;;;;;5111156;28;20187;-95
2022/06/05 14:03:12;;;;;;;0.77;0.70;;;14.30;99.90;;;;;;5103072;28;20202;-96
2022/06/05 14:08:15;;;;;;;2.77;0.83;;;14.40;99.90;;;;;;5064544;28;20203;-96
2022/06/05 14:11:00;;;;;;;1.53;0.80;;;14.30;99.90;;;;;;5061077;28;20210;-96
2022/06/05 14:13:42;;;;;;;3.03;0.70;;;14.40;99.90;;;;;;5042262;28;20266;-96
2022/06/05 14:16:15;;;;;;;1.43;0.77;;;14.30;99.90;;;;;;5058749;28;20204;-96
2022/06/05 14:18:49;;;;;;;1.27;0.90;;;14.30;99.90;;;;;;5059225;28;20219;-96
2022/06/05 14:21:25;;;;;;;1.23;0.77;;;14.30;99.90;;;;;;5059825;28;20215;-96
2022/06/05 14:24:22;;;;;;;0.83;0.83;;;14.40;99.90;;;;;;5049312;28;20227;-96
2022/06/05 14:26:56;;;;;;;2.73;1.10;;;14.40;99.90;;;;;;5060276;28;20242;-96
2022/06/05 14:29:35;;;;;;;1.83;1.00;;;14.40;99.90;;;;;;5058524;28;20203;-95